Newport, OR

12:43 AM PST on December 25, 2014 (GMT -0800)
MesoWest Yaquina Bridge Wind Alert 2 (US OR US ODOT | Change Station
CLOSE
Current Station
Personal Weather Station
Location: South Beach, OR
Elevation: 120 ft
Nearby Weather Stations

Elev 120 ft 44.62 °N, 124.06 °W | Updated 27 minutes ago

Mostly Cloudy
Mostly Cloudy
49 °F
Feels Like 49 °F
N
3
Wind Variable Wind from East
Gusts 27.0 mph

Today
High -- | Low -- °F
--% Chance of Precip.
Yesterday
High -- | Low -- °F
Precip. -- in
7:51 AM 4:41 PM
Waxing Crescent, 14% visible
Pressure 30.18 in
Visibility 10.0 miles
Clouds Scattered Clouds 3000 ft
Mostly Cloudy 3600 ft
Mostly Cloudy 4500 ft
Windchill 49 °F
Dew Point Not available.
Humidity Not available.
Rainfall -999.00 in
Snow Depth Not available.
UV 0 out of 12
Pollen .50 out of 12
Air Quality Not available.
Flu Activity Not available.
METAR KONP 250835Z AUTO 31010G14KT 10SM SCT030 BKN036 BKN045 08/06 A3018 RMK AO2

More Conditions Fewer Conditions

Pressure 30.18 in
Visibility 10.0 miles
Clouds Scattered Clouds 3000 ft
Mostly Cloudy 3600 ft
Mostly Cloudy 4500 ft
Windchill 49 °F
Dew Point Not available.
Humidity Not available.
Rainfall -999.00 in
Snow Depth Not available.
UV 0 out of 12
Pollen .50 out of 12
Air Quality Not available.
Flu Activity Not available.
METAR KONP 250835Z AUTO 31010G14KT 10SM SCT030 BKN036 BKN045 08/06 A3018 RMK AO2

More Conditions Fewer Conditions

10-Day Weather Forecast

Almanac

Astronomy

Dec. 25, 2014 Rise Set
Actual Time
Civil Twilight
Nautical Twilight
Astronomical Twilight
Moon
Length of Visible Light
Length of Day
Tomorrow will be .
, % of the Moon is Illuminated

Today's Extremes

State Highs State Lows

Community

WunderPhotos

Upload Photos

1,780,250 photos uploaded!

WunderBlogs® & News

Nearby

Air Quality

  Air Quality AQ Index Pollutant
Not available.

Snow Depth

Station Depth Elevation

Earthquake Activity

City Distance Mag. Time & Date
Minimum magnitude displayed is 2.5.

Coastal Water Temperatures

Place Temperature

Nearby Weather Stations